Time;durP1;ratioP1;P1;durP2;ratioP2;P2;SDS_P1;SDS_P2;PMS_P1;PMS_P2;Temp;Humidity;BMP_temperature;BMP_pressure;BME280_temperature;BME280_humidity;BME280_pressure;Samples;Min_cycle;Max_cycle;Signal;HPM_P1;HPM_P2
2021/10/09 11:21:51;;;;;;;6.82;5.50;;;;;;;;;;5469605;22;20429;-46
2021/10/09 11:24:17;;;;;;;7.00;5.57;;;;;;;;;;5041784;28;20416;-49
2021/10/09 11:26:53;;;;;;;7.40;5.60;;;;;;;;;;5031972;28;20399;-52
2021/10/09 11:29:19;;;;;;;7.25;5.43;;;;;;;;;;5045009;28;20369;-49
2021/10/09 11:31:45;;;;;;;6.67;5.27;;;;;;;;;;5026543;28;20515;-48
2021/10/09 11:34:11;;;;;;;5.70;5.03;;;;;;;;;;5043940;28;20370;-48
2021/10/09 11:36:38;;;;;;;6.20;4.78;;;;;;;;;;5044195;28;20712;-48
2021/10/09 11:39:08;;;;;;;6.80;4.95;;;;;;;;;;5044211;28;20472;-47
2021/10/09 11:41:35;;;;;;;5.55;4.72;;;;;;;;;;5029046;28;20786;-50
2021/10/09 11:44:19;;;;;;;6.23;4.73;;;;;;;;;;5046904;28;20857;-48
2021/10/09 11:47:18;;;;;;;5.30;4.80;;;;;;;;;;5038214;28;20390;-47
2021/10/09 11:55:23;;;;;;;5.10;4.45;;;;;;;;;;5030312;28;20431;-50
2021/10/09 11:57:55;;;;;;;5.68;4.50;;;;;;;;;;5045654;28;20899;-49
2021/10/09 12:00:31;;;;;;;4.82;4.10;;;;;;;;;;5045448;28;20380;-48
2021/10/09 12:02:58;;;;;;;4.95;4.40;;;;;;;;;;5048092;28;20752;-47
2021/10/09 12:05:33;;;;;;;4.65;4.10;;;;;;;;;;5047572;28;20397;-48
2021/10/09 12:08:17;;;;;;;4.80;4.30;;;;;;;;;;5035461;28;20405;-48
2021/10/09 12:11:02;;;;;;;5.20;4.30;;;;;;;;;;5031025;28;20508;-48
2021/10/09 12:13:31;;;;;;;5.38;4.30;;;;;;;;;;5047795;28;20393;-46
2021/10/09 12:16:12;;;;;;;4.82;4.32;;;;;;;;;;5048248;28;20389;-48
2021/10/09 12:18:48;;;;;;;5.10;4.40;;;;;;;;;;5047955;28;20397;-48
2021/10/09 12:21:15;;;;;;;4.65;4.00;;;;;;;;;;5043345;28;20998;-47
2021/10/09 12:23:42;;;;;;;4.32;3.88;;;;;;;;;;5044733;28;20901;-49
2021/10/09 12:26:27;;;;;;;4.88;3.95;;;;;;;;;;5047474;28;20362;-48
2021/10/09 12:29:25;;;;;;;4.72;3.90;;;;;;;;;;5047995;28;20762;-47
2021/10/09 12:31:51;;;;;;;5.00;4.13;;;;;;;;;;4993907;28;20448;-50
2021/10/09 12:34:33;;;;;;;4.88;3.72;;;;;;;;;;5047282;28;20711;-48
2021/10/09 12:37:38;;;;;;;5.35;4.10;;;;;;;;;;5047625;28;20386;-48
2021/10/09 12:40:11;;;;;;;4.65;3.90;;;;;;;;;;4945368;29;20447;-48
2021/10/09 12:42:41;;;;;;;4.45;3.60;;;;;;;;;;4938662;29;20398;-49
2021/10/09 12:45:07;;;;;;;4.70;4.00;;;;;;;;;;5002323;28;20462;-49
2021/10/09 12:47:33;;;;;;;4.93;3.77;;;;;;;;;;5046617;28;21015;-51
2021/10/09 12:50:02;;;;;;;4.20;3.80;;;;;;;;;;5029980;28;20405;-48
2021/10/09 12:52:30;;;;;;;4.20;3.80;;;;;;;;;;5047245;28;20499;-51
2021/10/09 12:55:02;;;;;;;3.80;3.38;;;;;;;;;;5048410;28;20388;-51
2021/10/09 12:57:28;;;;;;;4.03;3.63;;;;;;;;;;5046765;28;20390;-52
2021/10/09 12:59:54;;;;;;;3.63;3.30;;;;;;;;;;5048269;28;20388;-49
2021/10/09 13:02:25;;;;;;;5.30;3.60;;;;;;;;;;5047644;28;20384;-49
2021/10/09 13:04:54;;;;;;;5.20;3.80;;;;;;;;;;5047618;28;20494;-48
2021/10/09 13:07:22;;;;;;;3.90;3.35;;;;;;;;;;5046258;28;20408;-48
2021/10/09 13:09:49;;;;;;;3.60;3.10;;;;;;;;;;5047106;28;20385;-49
2021/10/09 13:12:16;;;;;;;4.30;3.22;;;;;;;;;;5029405;28;20411;-51
2021/10/09 13:14:45;;;;;;;3.67;3.30;;;;;;;;;;5047419;28;20449;-49
2021/10/09 13:17:14;;;;;;;4.35;3.20;;;;;;;;;;5032778;28;20377;-48
2021/10/09 13:19:42;;;;;;;3.67;3.17;;;;;;;;;;5049924;28;21571;-52
2021/10/09 13:22:11;;;;;;;4.03;3.33;;;;;;;;;;5051566;28;20412;-50
2021/10/09 13:24:37;;;;;;;4.25;3.47;;;;;;;;;;5050686;28;20377;-48
2021/10/09 13:27:05;;;;;;;3.83;3.20;;;;;;;;;;5050905;28;21336;-48
2021/10/09 13:29:31;;;;;;;3.87;3.13;;;;;;;;;;5051110;28;20397;-49
2021/10/09 13:32:02;;;;;;;3.38;2.85;;;;;;;;;;5050941;28;20796;-49
2021/10/09 13:34:28;;;;;;;3.25;2.95;;;;;;;;;;5051305;28;20431;-47
2021/10/09 13:36:57;;;;;;;3.20;2.90;;;;;;;;;;5050784;28;20373;-47
2021/10/09 13:39:26;;;;;;;3.92;3.08;;;;;;;;;;5033237;28;20536;-48
2021/10/09 13:41:54;;;;;;;3.60;3.10;;;;;;;;;;5050885;28;20708;-48
2021/10/09 13:44:21;;;;;;;4.15;2.97;;;;;;;;;;5032783;28;20467;-48
2021/10/09 13:46:47;;;;;;;3.58;3.10;;;;;;;;;;5050214;28;20381;-50
2021/10/09 13:49:15;;;;;;;3.27;2.87;;;;;;;;;;5033031;28;20381;-48
2021/10/09 13:51:42;;;;;;;4.50;3.15;;;;;;;;;;5050946;28;20456;-50
2021/10/09 13:54:10;;;;;;;5.47;3.00;;;;;;;;;;5051057;28;20377;-49
2021/10/09 13:56:41;;;;;;;3.70;3.10;;;;;;;;;;5050010;28;20373;-48
2021/10/09 13:59:10;;;;;;;3.33;2.78;;;;;;;;;;5050182;28;20500;-49
2021/10/09 14:01:36;;;;;;;3.20;2.90;;;;;;;;;;5050687;28;20441;-48
2021/10/09 14:04:02;;;;;;;3.28;2.97;;;;;;;;;;5050236;28;20380;-48
2021/10/09 14:06:31;;;;;;;3.15;2.83;;;;;;;;;;5051363;28;20929;-48
2021/10/09 14:09:01;;;;;;;3.13;2.83;;;;;;;;;;5050447;28;20369;-49
2021/10/09 14:11:27;;;;;;;3.55;3.10;;;;;;;;;;5051079;28;20505;-46
2021/10/09 14:13:54;;;;;;;3.20;2.90;;;;;;;;;;5050656;28;20396;-49
2021/10/09 14:16:20;;;;;;;2.95;2.63;;;;;;;;;;5050751;28;20366;-50
2021/10/09 14:18:46;;;;;;;3.30;2.80;;;;;;;;;;5050479;28;20440;-48
2021/10/09 14:21:12;;;;;;;3.03;2.57;;;;;;;;;;5037573;28;20479;-49
2021/10/09 14:23:40;;;;;;;2.97;2.67;;;;;;;;;;5050897;28;20448;-49
2021/10/09 14:26:09;;;;;;;3.42;3.00;;;;;;;;;;5020064;28;20378;-48
2021/10/09 14:28:40;;;;;;;3.05;2.60;;;;;;;;;;5049795;28;20448;-48
2021/10/09 14:31:08;;;;;;;3.47;2.80;;;;;;;;;;5050985;28;20435;-49
2021/10/09 14:33:35;;;;;;;2.80;2.60;;;;;;;;;;5050004;28;20435;-49
2021/10/09 14:36:04;;;;;;;2.72;2.50;;;;;;;;;;5032843;28;20386;-48
2021/10/09 14:38:34;;;;;;;2.90;2.60;;;;;;;;;;5050435;28;20446;-48
2021/10/09 14:41:06;;;;;;;3.15;2.85;;;;;;;;;;5050417;28;20453;-48
2021/10/09 14:43:38;;;;;;;3.22;2.67;;;;;;;;;;5050013;28;20369;-48
2021/10/09 14:48:49;;;;;;;2.85;2.53;;;;;;;;;;5039131;28;20395;-48
2021/10/09 14:51:42;;;;;;;2.70;2.50;;;;;;;;;;5049737;28;20493;-49
2021/10/09 15:02:46;;;;;;;3.15;2.50;;;;;;;;;;5049714;28;20477;-47
2021/10/09 15:16:43;;;;;;;2.90;2.38;;;;;;;;;;5041114;28;20381;-48
2021/10/09 15:19:12;;;;;;;3.75;2.47;;;;;;;;;;5028094;28;21605;-47
2021/10/09 15:21:40;;;;;;;3.05;2.60;;;;;;;;;;5039946;28;20397;-49
2021/10/09 15:24:06;;;;;;;2.97;2.40;;;;;;;;;;5049391;28;20461;-48
2021/10/09 15:26:32;;;;;;;2.55;2.30;;;;;;;;;;5050044;28;20384;-48
2021/10/09 15:29:01;;;;;;;2.63;2.33;;;;;;;;;;5049457;28;20460;-50
2021/10/09 15:31:33;;;;;;;2.85;2.55;;;;;;;;;;5031704;28;20416;-50
2021/10/09 15:34:02;;;;;;;3.27;2.60;;;;;;;;;;5049959;28;20408;-51
2021/10/09 15:36:30;;;;;;;3.42;2.50;;;;;;;;;;5036863;28;20905;-48
2021/10/09 15:38:56;;;;;;;2.80;2.50;;;;;;;;;;5048585;28;20884;-50
2021/10/09 15:41:27;;;;;;;3.10;2.40;;;;;;;;;;5049485;28;20362;-48
2021/10/09 15:43:55;;;;;;;3.10;2.50;;;;;;;;;;5036985;28;20366;-49
2021/10/09 15:46:23;;;;;;;2.97;2.40;;;;;;;;;;5023234;28;20428;-48
2021/10/09 15:48:51;;;;;;;2.88;2.42;;;;;;;;;;5049561;28;20380;-49
2021/10/09 15:51:20;;;;;;;2.60;2.30;;;;;;;;;;5048938;28;20413;-48
2021/10/09 15:53:46;;;;;;;2.95;2.28;;;;;;;;;;5049598;28;20430;-49
2021/10/09 15:56:15;;;;;;;2.47;2.25;;;;;;;;;;5048427;28;20390;-47
2021/10/09 15:58:46;;;;;;;2.97;2.65;;;;;;;;;;5042571;28;20414;-47
2021/10/09 16:01:13;;;;;;;3.00;2.50;;;;;;;;;;5048868;28;20432;-49
2021/10/09 16:03:39;;;;;;;3.45;2.55;;;;;;;;;;5047885;28;20380;-47
2021/10/09 16:06:05;;;;;;;3.58;2.40;;;;;;;;;;5048787;28;20406;-50
2021/10/09 16:08:34;;;;;;;3.75;2.55;;;;;;;;;;5045631;28;20397;-47
2021/10/09 16:11:00;;;;;;;2.90;2.53;;;;;;;;;;5042829;28;20413;-48
2021/10/09 16:13:29;;;;;;;3.50;2.72;;;;;;;;;;5032503;28;20388;-50
2021/10/09 16:15:55;;;;;;;2.88;2.50;;;;;;;;;;5049562;28;20378;-50
2021/10/09 16:18:22;;;;;;;2.60;2.38;;;;;;;;;;5048889;28;20423;-49
2021/10/09 16:20:48;;;;;;;3.10;2.30;;;;;;;;;;5051114;28;20394;-48
2021/10/09 16:23:14;;;;;;;2.72;2.47;;;;;;;;;;5049277;28;20369;-51
2021/10/09 16:25:40;;;;;;;2.70;2.45;;;;;;;;;;5049663;28;20365;-52
2021/10/09 16:28:06;;;;;;;2.92;2.42;;;;;;;;;;5031505;28;20553;-51
2021/10/09 16:30:33;;;;;;;3.13;2.47;;;;;;;;;;5048968;28;20866;-51
2021/10/09 16:33:00;;;;;;;3.40;2.50;;;;;;;;;;5048682;28;20476;-50
2021/10/09 16:35:27;;;;;;;3.10;2.40;;;;;;;;;;5048963;28;20369;-49
2021/10/09 16:37:53;;;;;;;2.90;2.50;;;;;;;;;;5048470;28;20428;-47
2021/10/09 16:40:19;;;;;;;2.75;2.45;;;;;;;;;;5047391;28;21004;-48
2021/10/09 16:42:45;;;;;;;2.80;2.47;;;;;;;;;;5031623;28;20388;-49
2021/10/09 16:45:11;;;;;;;2.80;2.38;;;;;;;;;;5046963;28;20504;-48
2021/10/09 16:47:37;;;;;;;2.70;2.50;;;;;;;;;;5048544;28;20388;-48
2021/10/09 16:50:04;;;;;;;3.55;2.58;;;;;;;;;;5051434;28;20737;-48
2021/10/09 16:52:31;;;;;;;2.88;2.30;;;;;;;;;;5034594;28;20393;-48
2021/10/09 16:54:57;;;;;;;2.75;2.42;;;;;;;;;;5049954;28;20381;-49
2021/10/09 16:57:23;;;;;;;2.92;2.50;;;;;;;;;;5052510;28;20388;-50
2021/10/09 16:59:52;;;;;;;2.92;2.63;;;;;;;;;;5053256;28;20377;-49
2021/10/09 17:02:19;;;;;;;2.75;2.38;;;;;;;;;;5027471;28;20395;-49
2021/10/09 17:04:45;;;;;;;2.60;2.17;;;;;;;;;;5043381;28;20381;-48
2021/10/09 17:07:11;;;;;;;2.50;2.30;;;;;;;;;;5049209;28;20372;-48
2021/10/09 17:09:37;;;;;;;2.65;2.40;;;;;;;;;;5042485;28;20789;-48
2021/10/09 17:12:06;;;;;;;2.63;2.42;;;;;;;;;;5010416;28;20421;-47
2021/10/09 17:14:33;;;;;;;2.97;2.47;;;;;;;;;;5042336;28;20707;-52
2021/10/09 17:16:59;;;;;;;3.00;2.30;;;;;;;;;;5040555;28;20440;-47
2021/10/09 17:19:26;;;;;;;2.92;2.40;;;;;;;;;;5030814;28;20389;-50
2021/10/09 17:21:52;;;;;;;3.22;2.38;;;;;;;;;;5038975;28;20408;-49
2021/10/09 17:24:18;;;;;;;3.15;2.70;;;;;;;;;;5034927;28;20411;-50
2021/10/09 17:26:44;;;;;;;4.97;3.87;;;;;;;;;;5038236;28;20445;-47
2021/10/09 17:29:10;;;;;;;7.10;5.50;;;;;;;;;;5045555;28;20413;-47
2021/10/09 17:31:37;;;;;;;6.88;6.18;;;;;;;;;;5049091;28;21131;-50
2021/10/09 17:34:12;;;;;;;7.75;6.50;;;;;;;;;;5031962;28;20849;-53
2021/10/09 17:36:38;;;;;;;8.40;7.50;;;;;;;;;;5040589;28;20373;-49
2021/10/09 17:39:04;;;;;;;9.30;8.07;;;;;;;;;;5029878;28;20384;-50
2021/10/09 17:41:30;;;;;;;9.43;8.43;;;;;;;;;;5051117;28;20506;-49
2021/10/09 17:43:56;;;;;;;10.80;9.20;;;;;;;;;;5051072;28;20397;-51
2021/10/09 17:46:23;;;;;;;10.43;8.60;;;;;;;;;;5049634;28;20436;-52
2021/10/09 17:48:51;;;;;;;10.43;9.20;;;;;;;;;;5051165;28;20388;-48
2021/10/09 17:51:29;;;;;;;11.32;9.93;;;;;;;;;;5047840;28;20517;-50
2021/10/09 17:53:55;;;;;;;12.20;10.45;;;;;;;;;;5034054;28;20415;-50
2021/10/09 17:56:25;;;;;;;11.48;10.27;;;;;;;;;;5033100;28;20484;-52
2021/10/09 17:58:51;;;;;;;12.25;10.45;;;;;;;;;;5027292;28;20425;-52
2021/10/09 18:01:23;;;;;;;11.13;9.93;;;;;;;;;;5035775;28;20403;-54
2021/10/09 18:03:57;;;;;;;11.52;10.32;;;;;;;;;;5054763;28;20488;-49
2021/10/09 18:06:26;;;;;;;11.93;10.55;;;;;;;;;;5053069;28;20495;-52
2021/10/09 18:08:56;;;;;;;11.73;10.50;;;;;;;;;;5036343;28;20714;-53
2021/10/09 18:11:25;;;;;;;12.82;11.07;;;;;;;;;;5028257;28;20791;-50
2021/10/09 18:13:54;;;;;;;12.37;10.77;;;;;;;;;;5050783;28;20823;-54
2021/10/09 18:16:21;;;;;;;11.73;10.53;;;;;;;;;;5032815;28;20796;-53
2021/10/09 18:18:50;;;;;;;11.80;10.60;;;;;;;;;;5042737;28;20381;-52
2021/10/09 18:21:19;;;;;;;13.27;11.70;;;;;;;;;;5047278;28;20397;-54
2021/10/09 18:23:47;;;;;;;13.10;11.60;;;;;;;;;;5030028;28;20400;-51
2021/10/09 18:26:23;;;;;;;14.50;12.70;;;;;;;;;;5030987;28;20439;-50
2021/10/09 18:28:49;;;;;;;13.75;11.88;;;;;;;;;;5030437;28;20428;-52
2021/10/09 18:31:15;;;;;;;15.20;12.70;;;;;;;;;;5049370;28;20474;-51
2021/10/09 18:33:41;;;;;;;14.73;12.60;;;;;;;;;;5058569;28;20472;-52
2021/10/09 18:36:07;;;;;;;14.00;12.55;;;;;;;;;;5063882;28;20380;-50
2021/10/09 18:38:35;;;;;;;14.38;12.88;;;;;;;;;;5051013;28;20382;-50
2021/10/09 18:41:01;;;;;;;15.48;13.38;;;;;;;;;;5050715;28;20431;-51
2021/10/09 18:43:27;;;;;;;16.95;13.88;;;;;;;;;;5031892;28;20382;-49
2021/10/09 18:45:53;;;;;;;16.27;14.40;;;;;;;;;;5057577;28;20376;-50
2021/10/09 18:48:20;;;;;;;16.90;15.00;;;;;;;;;;5052820;28;20377;-51
2021/10/09 18:50:47;;;;;;;15.95;13.88;;;;;;;;;;5037355;28;20417;-51
2021/10/09 18:53:13;;;;;;;15.98;14.27;;;;;;;;;;5032697;28;20416;-51
2021/10/09 18:55:39;;;;;;;16.85;14.43;;;;;;;;;;5050553;28;20366;-52
2021/10/09 18:58:06;;;;;;;16.65;14.20;;;;;;;;;;5043568;28;20673;-53
2021/10/09 19:00:32;;;;;;;17.02;13.88;;;;;;;;;;5043233;28;20379;-49
2021/10/09 19:03:00;;;;;;;16.95;14.75;;;;;;;;;;5046094;28;20483;-52
2021/10/09 19:05:26;;;;;;;17.07;14.73;;;;;;;;;;5057623;28;20873;-51
2021/10/09 19:07:54;;;;;;;17.13;14.93;;;;;;;;;;5062150;28;20386;-53
2021/10/09 19:10:20;;;;;;;17.50;15.18;;;;;;;;;;5050040;28;20405;-51
2021/10/09 19:12:49;;;;;;;18.17;15.40;;;;;;;;;;5050471;28;20439;-51
2021/10/09 19:15:16;;;;;;;19.75;16.20;;;;;;;;;;5031953;28;20439;-51
2021/10/09 19:17:43;;;;;;;19.38;16.35;;;;;;;;;;5032288;28;20401;-51
2021/10/09 19:20:10;;;;;;;19.30;16.10;;;;;;;;;;5038898;28;20415;-52
2021/10/09 19:22:36;;;;;;;17.40;15.60;;;;;;;;;;5048236;28;20401;-50
2021/10/09 19:25:02;;;;;;;18.02;16.02;;;;;;;;;;5032017;28;20424;-49
2021/10/09 19:27:29;;;;;;;19.13;16.08;;;;;;;;;;5049313;28;20831;-49
2021/10/09 19:29:55;;;;;;;18.53;16.10;;;;;;;;;;5055786;28;20382;-52
2021/10/09 19:32:21;;;;;;;19.70;16.33;;;;;;;;;;5031815;28;20396;-52
2021/10/09 19:34:56;;;;;;;18.63;16.63;;;;;;;;;;5028795;28;20403;-49
2021/10/09 19:37:25;;;;;;;19.98;16.25;;;;;;;;;;5050180;28;20476;-52
2021/10/09 19:39:51;;;;;;;18.88;16.63;;;;;;;;;;5051125;28;20389;-51
2021/10/09 19:42:20;;;;;;;20.23;16.90;;;;;;;;;;5047717;28;20822;-53
2021/10/09 19:44:46;;;;;;;18.83;16.65;;;;;;;;;;5027575;28;20507;-52
2021/10/09 19:47:17;;;;;;;19.55;17.23;;;;;;;;;;5037299;28;20464;-48
2021/10/09 19:49:43;;;;;;;20.25;17.20;;;;;;;;;;5030485;28;20450;-50
2021/10/09 19:52:18;;;;;;;20.60;16.88;;;;;;;;;;5052570;28;20514;-51
2021/10/09 19:54:56;;;;;;;18.77;16.73;;;;;;;;;;5048191;28;20408;-51
2021/10/09 19:57:26;;;;;;;21.08;17.30;;;;;;;;;;5049545;28;20503;-47
2021/10/09 19:59:53;;;;;;;19.75;17.00;;;;;;;;;;5029625;28;20391;-49
2021/10/09 20:02:19;;;;;;;19.58;17.15;;;;;;;;;;5030857;28;20457;-49
2021/10/09 20:04:47;;;;;;;20.55;17.70;;;;;;;;;;5028912;28;20712;-51
2021/10/09 20:07:14;;;;;;;20.52;17.58;;;;;;;;;;5048397;28;20808;-50
2021/10/09 20:09:55;;;;;;;19.33;16.95;;;;;;;;;;5048994;28;20382;-51
2021/10/09 20:14:47;;;;;;;20.85;17.63;;;;;;;;;;5048923;28;20457;-50
2021/10/09 20:17:14;;;;;;;19.83;16.43;;;;;;;;;;5047929;28;21028;-50
2021/10/09 20:19:42;;;;;;;20.17;17.30;;;;;;;;;;5030541;28;20405;-50
2021/10/09 20:22:14;;;;;;;19.90;16.65;;;;;;;;;;5048608;28;20416;-50
2021/10/09 20:24:41;;;;;;;20.65;17.48;;;;;;;;;;5031810;28;20402;-52
2021/10/09 20:27:10;;;;;;;20.60;17.98;;;;;;;;;;5030388;28;20703;-50
2021/10/09 20:29:36;;;;;;;19.70;17.08;;;;;;;;;;5031091;28;20478;-49
2021/10/09 20:32:02;;;;;;;20.27;17.50;;;;;;;;;;5048968;28;20878;-52
2021/10/09 20:34:29;;;;;;;21.10;17.67;;;;;;;;;;5039002;28;20383;-49
2021/10/09 20:36:56;;;;;;;21.45;17.38;;;;;;;;;;5050211;28;20450;-49
2021/10/09 20:39:23;;;;;;;20.27;17.38;;;;;;;;;;5030388;28;20393;-50
2021/10/09 20:41:49;;;;;;;19.95;17.70;;;;;;;;;;5048825;28;20531;-47
2021/10/09 20:44:15;;;;;;;20.52;17.52;;;;;;;;;;5048764;28;20365;-52
2021/10/09 20:46:41;;;;;;;21.38;17.77;;;;;;;;;;5044437;28;20416;-49
2021/10/09 20:49:07;;;;;;;20.70;17.80;;;;;;;;;;5048263;28;20392;-49
2021/10/09 20:51:41;;;;;;;20.38;18.08;;;;;;;;;;5033308;28;20413;-52
2021/10/09 20:54:07;;;;;;;18.90;16.52;;;;;;;;;;5049161;28;20397;-47
2021/10/09 20:56:33;;;;;;;20.23;16.85;;;;;;;;;;5043396;28;20850;-49
2021/10/09 20:58:59;;;;;;;21.00;16.38;;;;;;;;;;5041113;28;20378;-49
2021/10/09 21:01:26;;;;;;;19.00;16.13;;;;;;;;;;5030316;28;20517;-49
2021/10/09 21:03:52;;;;;;;20.93;15.40;;;;;;;;;;5051704;28;20360;-49
2021/10/09 21:06:20;;;;;;;19.67;16.15;;;;;;;;;;5049465;28;20374;-51
2021/10/09 21:08:47;;;;;;;21.10;15.63;;;;;;;;;;5031262;28;20477;-48
2021/10/09 21:11:21;;;;;;;17.48;15.05;;;;;;;;;;5049249;28;20414;-50
2021/10/09 21:24:24;;;;;;;17.92;14.40;;;;;;;;;;5048897;28;20440;-49
